Time;durP1;ratioP1;P1;durP2;ratioP2;P2;SDS_P1;SDS_P2;PMS_P1;PMS_P2;Temp;Humidity;BMP_temperature;BMP_pressure;BME280_temperature;BME280_humidity;BME280_pressure;Samples;Min_cycle;Max_cycle;Signal;HPM_P1;HPM_P2
2021/01/18 00:00:24;;;;;;;10.02;5.40;;;4.50;99.90;;;;;;5093181;28;20217;-77
2021/01/18 00:02:51;;;;;;;10.25;5.03;;;4.40;99.90;;;;;;5095362;28;20248;-77
2021/01/18 00:05:18;;;;;;;10.90;5.32;;;4.30;99.90;;;;;;5096956;28;20254;-78
2021/01/18 00:07:47;;;;;;;8.02;5.35;;;4.50;99.90;;;;;;5099561;28;20201;-78
2021/01/18 00:10:15;;;;;;;8.75;5.55;;;4.50;99.90;;;;;;5099625;28;20207;-78
2021/01/18 00:12:50;;;;;;;11.65;5.20;;;4.30;99.90;;;;;;5099036;28;20250;-78
2021/01/18 00:15:19;;;;;;;11.23;5.40;;;4.20;99.90;;;;;;5100118;28;20231;-78
2021/01/18 00:17:46;;;;;;;8.82;5.85;;;4.50;99.90;;;;;;5095812;28;20401;-78
2021/01/18 00:20:14;;;;;;;10.80;5.60;;;4.30;99.90;;;;;;5094522;28;20209;-78
2021/01/18 00:22:42;;;;;;;7.47;5.10;;;4.30;99.90;;;;;;5096040;28;20255;-78
2021/01/18 00:25:11;;;;;;;8.35;5.53;;;4.60;99.90;;;;;;5096382;28;20671;-79
2021/01/18 00:27:39;;;;;;;6.82;4.28;;;4.60;99.90;;;;;;5094863;28;20205;-78
2021/01/18 00:30:09;;;;;;;6.88;4.15;;;4.50;99.90;;;;;;5093247;28;20295;-79
2021/01/18 00:32:36;;;;;;;8.65;5.05;;;4.40;99.90;;;;;;5093165;28;20263;-79
2021/01/18 00:35:04;;;;;;;7.88;5.15;;;4.40;99.90;;;;;;5094180;28;20217;-78
2021/01/18 00:37:31;;;;;;;7.97;4.95;;;4.70;99.90;;;;;;5093683;28;20217;-78
2021/01/18 00:39:57;;;;;;;7.57;5.05;;;4.50;99.90;;;;;;5093141;28;20201;-78
2021/01/18 00:42:25;;;;;;;7.97;5.05;;;4.60;99.90;;;;;;5093270;28;20324;-78
2021/01/18 00:44:52;;;;;;;8.27;4.45;;;4.50;99.90;;;;;;5092696;28;20262;-78
2021/01/18 00:47:18;;;;;;;7.05;4.97;;;4.50;99.90;;;;;;5093251;28;20231;-78
2021/01/18 00:49:45;;;;;;;9.30;5.38;;;4.50;99.90;;;;;;5092610;28;20266;-78
2021/01/18 00:52:14;;;;;;;7.45;4.95;;;4.40;99.90;;;;;;5092744;28;20217;-78
2021/01/18 00:54:41;;;;;;;7.78;4.97;;;4.60;99.90;;;;;;5093069;28;20212;-78
2021/01/18 00:57:07;;;;;;;7.07;4.45;;;4.50;99.90;;;;;;5096065;28;20231;-78
2021/01/18 00:59:35;;;;;;;7.55;4.65;;;4.50;99.90;;;;;;5092775;28;20217;-79
2021/01/18 01:02:02;;;;;;;7.28;4.82;;;4.40;99.90;;;;;;5093028;28;20281;-78
2021/01/18 01:04:28;;;;;;;7.30;4.95;;;4.40;99.90;;;;;;5092581;28;20198;-79
2021/01/18 01:06:55;;;;;;;12.65;4.88;;;4.60;99.90;;;;;;5090473;28;20209;-79
2021/01/18 01:09:22;;;;;;;7.30;4.80;;;4.60;99.90;;;;;;5090554;28;20266;-79
2021/01/18 01:11:49;;;;;;;11.57;5.00;;;4.40;99.90;;;;;;5080693;28;20304;-79
2021/01/18 01:14:15;;;;;;;6.45;4.20;;;4.50;99.90;;;;;;5080134;28;20202;-79
2021/01/18 01:16:44;;;;;;;8.80;4.72;;;4.60;99.90;;;;;;5086562;28;20200;-79
2021/01/18 01:19:11;;;;;;;7.32;4.78;;;4.70;99.90;;;;;;5090450;28;20525;-79
2021/01/18 01:21:38;;;;;;;11.32;5.07;;;4.20;99.90;;;;;;5091910;28;20868;-79
2021/01/18 01:24:05;;;;;;;10.10;4.75;;;4.30;99.90;;;;;;5092704;28;20200;-79
2021/01/18 01:26:32;;;;;;;8.23;5.10;;;4.40;99.90;;;;;;5090937;28;20220;-79
2021/01/18 01:28:59;;;;;;;7.30;4.82;;;4.30;99.90;;;;;;5091191;28;20220;-79
2021/01/18 01:31:25;;;;;;;6.93;3.97;;;4.20;99.90;;;;;;5090593;28;20201;-79
2021/01/18 01:33:53;;;;;;;7.57;4.85;;;4.10;99.90;;;;;;5090891;28;20201;-79
2021/01/18 01:36:19;;;;;;;9.30;5.03;;;4.30;99.90;;;;;;5091338;28;20274;-79
2021/01/18 01:38:46;;;;;;;7.05;3.78;;;4.40;99.90;;;;;;5089854;28;20221;-78
2021/01/18 01:41:12;;;;;;;9.25;5.45;;;4.40;99.90;;;;;;5091256;28;20205;-79
2021/01/18 01:43:39;;;;;;;10.27;5.40;;;4.30;99.90;;;;;;5090481;28;20225;-79
2021/01/18 01:46:06;;;;;;;8.70;4.57;;;4.20;99.90;;;;;;5091190;28;20205;-79
2021/01/18 01:48:32;;;;;;;9.10;4.35;;;4.20;99.90;;;;;;5090010;28;20207;-79
2021/01/18 01:51:00;;;;;;;6.10;3.75;;;4.10;99.90;;;;;;5092070;28;20205;-79
2021/01/18 01:53:29;;;;;;;7.40;4.57;;;4.10;99.90;;;;;;5090512;28;20246;-79
2021/01/18 01:55:57;;;;;;;6.78;4.70;;;4.20;99.90;;;;;;5091255;28;20296;-79
2021/01/18 01:58:25;;;;;;;7.10;3.40;;;4.00;99.90;;;;;;5091530;28;20249;-79
2021/01/18 02:00:54;;;;;;;6.05;3.70;;;4.40;99.90;;;;;;5092625;28;20216;-79
2021/01/18 02:03:30;;;;;;;7.57;3.88;;;4.30;99.90;;;;;;5091256;28;20224;-79
2021/01/18 02:05:56;;;;;;;6.63;3.88;;;4.30;99.90;;;;;;5089091;28;20206;-79
2021/01/18 02:08:24;;;;;;;8.38;4.03;;;4.10;99.90;;;;;;5093171;28;20220;-79
2021/01/18 02:10:50;;;;;;;6.80;4.13;;;4.30;99.90;;;;;;5089344;28;20208;-79
2021/01/18 02:13:26;;;;;;;8.18;3.70;;;4.30;99.90;;;;;;5093727;28;20228;-79
2021/01/18 02:16:03;;;;;;;7.05;3.90;;;4.50;99.90;;;;;;5094237;28;20259;-79
2021/01/18 02:18:45;;;;;;;6.30;4.15;;;4.40;99.90;;;;;;5093006;28;20254;-79
2021/01/18 02:21:46;;;;;;;5.13;3.35;;;4.30;99.90;;;;;;5073641;28;20210;-79
2021/01/18 02:25:01;;;;;;;5.80;3.40;;;4.20;99.90;;;;;;5072808;28;20210;-79
2021/01/18 02:28:12;;;;;;;6.32;3.95;;;4.70;99.90;;;;;;5079050;28;20198;-79
2021/01/18 02:31:11;;;;;;;7.45;3.90;;;4.60;99.90;;;;;;5088597;28;20223;-79
2021/01/18 02:34:06;;;;;;;6.45;3.70;;;4.50;99.90;;;;;;5089917;28;20221;-79
2021/01/18 02:36:44;;;;;;;5.13;3.30;;;4.60;99.90;;;;;;5093732;28;20232;-79
2021/01/18 02:39:16;;;;;;;5.78;3.63;;;4.60;99.90;;;;;;5099526;28;20225;-78
2021/01/18 02:41:48;;;;;;;6.03;3.50;;;4.40;99.90;;;;;;5100896;28;20236;-78
2021/01/18 02:44:18;;;;;;;7.43;3.72;;;4.60;99.90;;;;;;5100235;28;20204;-79
2021/01/18 02:46:48;;;;;;;5.90;3.13;;;4.70;99.90;;;;;;5097848;28;20205;-79
2021/01/18 02:49:17;;;;;;;7.05;4.18;;;4.60;99.90;;;;;;5097230;28;20521;-79
2021/01/18 02:51:50;;;;;;;6.10;3.88;;;4.30;99.90;;;;;;5096662;28;20228;-79
2021/01/18 02:54:16;;;;;;;5.70;3.92;;;4.40;99.90;;;;;;5096332;28;20201;-79
2021/01/18 02:56:50;;;;;;;6.38;4.05;;;4.60;99.90;;;;;;5096580;28;20754;-79
2021/01/18 02:59:20;;;;;;;5.72;3.80;;;4.50;99.90;;;;;;5095855;28;20714;-79
2021/01/18 03:02:05;;;;;;;11.63;4.13;;;4.40;99.90;;;;;;5097705;28;20225;-78
2021/01/18 03:04:42;;;;;;;6.55;4.32;;;4.40;99.90;;;;;;5097426;28;20205;-79
2021/01/18 03:07:17;;;;;;;7.43;4.70;;;4.50;99.90;;;;;;5093157;28;20221;-79
2021/01/18 03:09:50;;;;;;;8.32;4.47;;;4.60;99.90;;;;;;5095962;28;20216;-79
2021/01/18 03:12:22;;;;;;;9.40;5.25;;;4.50;99.90;;;;;;5098923;28;20225;-79
2021/01/18 03:14:53;;;;;;;7.40;5.03;;;4.50;99.90;;;;;;5107975;28;20274;-79
2021/01/18 03:17:23;;;;;;;9.27;5.10;;;4.30;99.90;;;;;;5108149;28;20205;-79
2021/01/18 03:19:52;;;;;;;8.95;4.97;;;4.50;99.90;;;;;;5107297;28;20233;-79
2021/01/18 03:22:24;;;;;;;7.78;5.30;;;4.30;99.90;;;;;;5108543;28;20217;-79
2021/01/18 03:24:51;;;;;;;9.82;5.65;;;4.30;99.90;;;;;;5108861;28;20675;-79
2021/01/18 03:27:18;;;;;;;9.73;5.60;;;4.50;99.90;;;;;;5108791;28;20201;-79
2021/01/18 03:29:45;;;;;;;15.38;7.32;;;4.60;99.90;;;;;;5108372;28;20194;-78
2021/01/18 03:32:11;;;;;;;10.30;6.82;;;4.70;99.90;;;;;;5107427;28;20536;-79
2021/01/18 03:34:38;;;;;;;10.43;6.05;;;4.50;99.90;;;;;;5107981;28;20205;-79
2021/01/18 03:37:05;;;;;;;10.98;5.65;;;4.50;99.90;;;;;;5108230;28;20248;-79
2021/01/18 03:39:33;;;;;;;9.52;6.53;;;4.60;99.90;;;;;;5106388;28;20280;-79
2021/01/18 03:41:59;;;;;;;7.53;5.47;;;4.60;99.90;;;;;;5086375;28;20276;-79
2021/01/18 03:44:26;;;;;;;8.18;5.93;;;4.50;99.90;;;;;;5098006;28;20204;-78
2021/01/18 03:46:53;;;;;;;8.73;6.10;;;4.60;99.90;;;;;;5107575;28;20243;-79
2021/01/18 03:49:20;;;;;;;8.25;5.00;;;4.40;99.90;;;;;;5106494;28;20201;-79
2021/01/18 03:51:46;;;;;;;9.13;5.60;;;4.60;99.90;;;;;;5109085;28;20239;-79
2021/01/18 03:54:13;;;;;;;9.55;6.03;;;4.40;99.90;;;;;;5093729;28;20205;-79
2021/01/18 03:56:41;;;;;;;10.43;5.75;;;4.50;99.90;;;;;;5094490;28;20207;-79
2021/01/18 03:59:08;;;;;;;11.50;6.05;;;4.50;99.90;;;;;;5094583;28;20259;-79
2021/01/18 04:01:39;;;;;;;9.95;5.82;;;4.50;99.90;;;;;;5093314;28;20631;-79
2021/01/18 04:04:06;;;;;;;8.73;5.53;;;4.50;99.90;;;;;;5093068;28;20197;-79
2021/01/18 04:06:36;;;;;;;9.35;5.50;;;4.50;99.90;;;;;;5087584;28;20858;-79
2021/01/18 04:09:04;;;;;;;10.43;6.35;;;4.50;99.90;;;;;;5092057;28;20208;-79
2021/01/18 04:11:31;;;;;;;9.52;5.70;;;4.50;99.90;;;;;;5092365;28;20205;-79
2021/01/18 04:13:58;;;;;;;11.63;6.13;;;4.30;99.90;;;;;;5093042;28;20256;-79
2021/01/18 04:16:25;;;;;;;9.85;6.10;;;4.60;99.90;;;;;;5092511;28;20675;-79
2021/01/18 04:18:51;;;;;;;10.75;5.63;;;4.60;99.90;;;;;;5092909;28;20240;-79
2021/01/18 04:21:18;;;;;;;14.55;6.63;;;4.40;99.90;;;;;;5092384;28;20204;-79
2021/01/18 04:23:45;;;;;;;10.63;5.50;;;4.50;99.90;;;;;;5092447;28;20217;-79
2021/01/18 04:26:13;;;;;;;8.55;5.70;;;4.50;99.90;;;;;;5092638;28;20242;-79
2021/01/18 04:28:40;;;;;;;9.43;6.47;;;4.60;99.90;;;;;;5092798;28;20201;-79
2021/01/18 04:31:08;;;;;;;12.95;6.70;;;4.40;99.90;;;;;;5103645;28;20204;-79
2021/01/18 04:33:34;;;;;;;11.60;6.60;;;4.50;99.90;;;;;;5107252;28;20237;-79
2021/01/18 04:36:01;;;;;;;9.52;5.70;;;4.50;99.90;;;;;;5106309;28;20216;-79
2021/01/18 04:38:28;;;;;;;10.50;6.88;;;4.50;99.90;;;;;;5106963;28;20221;-79
2021/01/18 04:40:54;;;;;;;11.75;6.45;;;4.30;99.90;;;;;;5106624;28;20230;-78
2021/01/18 04:43:21;;;;;;;11.90;7.40;;;4.20;99.90;;;;;;5107033;28;20251;-79
2021/01/18 04:45:49;;;;;;;12.55;7.47;;;4.50;99.90;;;;;;5100162;28;20288;-79
2021/01/18 04:48:17;;;;;;;11.85;6.50;;;4.60;99.90;;;;;;5098073;28;20205;-79
2021/01/18 04:50:44;;;;;;;13.95;6.85;;;4.70;99.90;;;;;;5098476;28;20205;-79
2021/01/18 04:53:15;;;;;;;9.60;6.40;;;4.90;99.90;;;;;;5095845;28;20593;-79
2021/01/18 04:56:02;;;;;;;11.85;6.28;;;4.70;99.90;;;;;;5097540;28;20266;-78
2021/01/18 04:58:30;;;;;;;12.80;6.95;;;4.60;99.90;;;;;;5083798;28;20221;-79
2021/01/18 05:01:03;;;;;;;10.90;7.03;;;4.50;99.90;;;;;;5096179;28;20213;-78
2021/01/18 05:03:35;;;;;;;10.43;7.13;;;4.30;99.90;;;;;;5096447;28;20235;-78
2021/01/18 05:06:50;;;;;;;12.52;7.90;;;4.30;99.90;;;;;;5089915;28;20209;-79
2021/01/18 05:09:24;;;;;;;11.65;7.10;;;4.30;99.90;;;;;;5059559;28;20212;-79
2021/01/18 05:11:51;;;;;;;12.75;8.00;;;4.10;99.90;;;;;;5086409;28;20289;-79
2021/01/18 05:14:18;;;;;;;15.00;7.88;;;4.30;99.90;;;;;;5097540;28;20270;-79
2021/01/18 05:16:51;;;;;;;12.80;6.20;;;4.10;99.90;;;;;;5104470;28;20281;-79
2021/01/18 05:19:20;;;;;;;12.98;6.75;;;4.40;99.90;;;;;;5094378;28;20255;-80
2021/01/18 05:21:47;;;;;;;14.45;6.70;;;4.10;99.90;;;;;;5094442;28;20248;-78
2021/01/18 05:24:16;;;;;;;11.98;5.93;;;4.30;99.90;;;;;;5100327;28;20221;-79
2021/01/18 05:26:43;;;;;;;9.70;6.72;;;4.30;99.90;;;;;;5099036;28;20201;-79
2021/01/18 05:29:10;;;;;;;17.33;7.75;;;4.50;99.90;;;;;;5096468;28;20203;-79
2021/01/18 05:31:38;;;;;;;10.88;6.90;;;4.20;99.90;;;;;;5099274;28;20682;-80
2021/01/18 05:34:11;;;;;;;12.85;7.20;;;4.20;99.90;;;;;;5094627;28;20686;-79
2021/01/18 05:36:40;;;;;;;13.43;7.45;;;4.00;99.90;;;;;;5087940;28;20897;-78
2021/01/18 05:39:11;;;;;;;16.58;7.25;;;3.70;99.90;;;;;;5093922;28;20279;-78
2021/01/18 05:41:39;;;;;;;16.90;7.13;;;3.90;99.90;;;;;;5093799;28;20227;-78
2021/01/18 05:44:06;;;;;;;10.88;6.63;;;3.60;99.90;;;;;;5093762;28;20208;-78
2021/01/18 05:46:34;;;;;;;11.15;7.03;;;4.00;99.90;;;;;;5093822;28;20209;-80
2021/01/18 05:49:08;;;;;;;12.85;7.00;;;3.80;99.90;;;;;;5094992;28;20315;-78
2021/01/18 05:51:35;;;;;;;15.15;7.95;;;3.90;99.90;;;;;;5093536;28;20220;-79
2021/01/18 05:54:04;;;;;;;16.85;7.70;;;4.00;99.90;;;;;;5073767;28;20562;-79
2021/01/18 05:56:46;;;;;;;11.15;7.55;;;3.80;99.90;;;;;;5077112;28;20205;-78
2021/01/18 05:59:19;;;;;;;11.02;7.10;;;4.10;99.90;;;;;;5073969;28;20302;-79
2021/01/18 06:01:47;;;;;;;14.57;7.25;;;3.80;99.90;;;;;;5075224;28;20257;-79
2021/01/18 06:04:15;;;;;;;13.13;7.72;;;3.90;99.90;;;;;;5093676;28;20272;-80
2021/01/18 06:06:42;;;;;;;16.92;7.70;;;4.00;99.90;;;;;;5083512;28;20739;-79
2021/01/18 06:09:10;;;;;;;15.30;8.10;;;4.00;99.90;;;;;;5093281;28;20198;-79
2021/01/18 06:11:36;;;;;;;16.15;8.32;;;4.10;99.90;;;;;;5093660;28;20234;-79
2021/01/18 06:14:05;;;;;;;9.52;6.50;;;4.10;99.90;;;;;;5093480;28;20232;-80
2021/01/18 06:16:33;;;;;;;12.27;6.40;;;4.20;99.90;;;;;;5095300;28;20311;-80
2021/01/18 06:19:05;;;;;;;17.95;8.80;;;3.80;99.90;;;;;;5099078;28;20259;-79
2021/01/18 06:21:39;;;;;;;11.38;6.93;;;3.90;99.90;;;;;;5082029;28;20193;-79
2021/01/18 06:24:17;;;;;;;12.40;7.80;;;3.90;99.90;;;;;;5093720;28;20201;-79
2021/01/18 06:26:44;;;;;;;13.05;7.60;;;3.90;99.90;;;;;;5095241;28;20596;-80
2021/01/18 06:29:11;;;;;;;20.48;7.30;;;3.80;99.90;;;;;;5093705;28;20205;-79
2021/01/18 06:31:45;;;;;;;15.38;7.30;;;4.10;99.90;;;;;;5093295;28;20208;-79
2021/01/18 06:34:12;;;;;;;11.63;6.95;;;4.00;99.90;;;;;;5092764;28;20494;-78
2021/01/18 06:36:41;;;;;;;16.02;7.00;;;4.10;99.90;;;;;;5093325;28;20626;-79
2021/01/18 06:39:08;;;;;;;14.45;7.20;;;4.00;99.90;;;;;;5093627;28;20232;-79
2021/01/18 06:41:38;;;;;;;16.73;8.18;;;4.00;99.90;;;;;;5095155;28;20839;-79
2021/01/18 06:44:06;;;;;;;11.85;7.28;;;4.00;99.90;;;;;;5094263;28;20209;-79
2021/01/18 06:46:34;;;;;;;10.93;7.47;;;3.90;99.90;;;;;;5099472;28;20208;-79
2021/01/18 06:49:04;;;;;;;13.85;8.68;;;4.00;99.90;;;;;;5095261;28;20198;-78
2021/01/18 06:51:32;;;;;;;20.90;9.10;;;4.00;99.90;;;;;;5102355;28;20333;-80
2021/01/18 06:54:00;;;;;;;15.07;7.38;;;4.10;99.90;;;;;;5091877;28;20208;-79
2021/01/18 06:56:53;;;;;;;12.50;7.85;;;4.20;99.90;;;;;;5094168;28;20201;-78
2021/01/18 06:59:34;;;;;;;14.15;8.30;;;4.20;99.90;;;;;;5094154;28;20224;-79
2021/01/18 07:02:17;;;;;;;18.75;7.82;;;4.10;99.90;;;;;;5094793;28;20228;-79
2021/01/18 07:04:46;;;;;;;15.73;8.20;;;4.20;99.90;;;;;;5094672;28;20205;-79
2021/01/18 07:07:24;;;;;;;11.43;6.40;;;4.10;99.90;;;;;;5089363;28;20201;-79
2021/01/18 07:09:56;;;;;;;11.95;7.20;;;3.90;99.90;;;;;;5095328;28;20270;-79
2021/01/18 07:12:25;;;;;;;17.88;7.43;;;4.10;99.90;;;;;;5078048;28;20290;-79
2021/01/18 07:15:00;;;;;;;9.68;6.78;;;4.20;99.90;;;;;;5076658;28;20217;-79
2021/01/18 07:17:50;;;;;;;12.82;6.65;;;4.10;99.90;;;;;;5081839;28;20694;-83
2021/01/18 07:20:22;;;;;;;12.43;6.18;;;4.30;99.90;;;;;;5097381;28;20221;-81
2021/01/18 07:23:15;;;;;;;9.93;5.72;;;4.00;99.90;;;;;;5099497;28;20264;-82
2021/01/18 07:25:43;;;;;;;11.00;6.60;;;4.30;99.90;;;;;;5100267;28;20216;-80
2021/01/18 07:28:13;;;;;;;21.13;7.20;;;4.00;99.90;;;;;;5099155;28;20213;-81
2021/01/18 07:30:40;;;;;;;11.75;6.68;;;4.30;99.90;;;;;;5098244;28;20328;-79
2021/01/18 07:33:08;;;;;;;13.32;6.65;;;4.30;99.90;;;;;;5076906;28;20229;-79
2021/01/18 07:35:36;;;;;;;9.80;6.40;;;4.20;99.90;;;;;;5083671;28;20209;-79
2021/01/18 07:38:15;;;;;;;11.10;6.28;;;4.10;99.90;;;;;;5092919;28;20209;-79
2021/01/18 07:40:42;;;;;;;13.05;6.10;;;4.20;99.90;;;;;;5095112;28;20193;-79
2021/01/18 07:43:30;;;;;;;10.05;5.47;;;4.20;99.90;;;;;;5093779;28;20232;-77
2021/01/18 07:45:56;;;;;;;12.00;6.30;;;4.40;99.90;;;;;;5092227;28;20576;-77
2021/01/18 07:48:28;;;;;;;10.60;6.25;;;4.30;99.90;;;;;;5093261;28;20966;-79
2021/01/18 07:51:01;;;;;;;10.68;6.35;;;4.40;99.90;;;;;;5093030;28;20706;-78
2021/01/18 07:53:31;;;;;;;8.52;5.70;;;4.60;99.90;;;;;;5091270;28;20290;-78
2021/01/18 07:56:02;;;;;;;9.85;5.22;;;4.30;99.90;;;;;;5098338;28;20197;-78
2021/01/18 07:58:31;;;;;;;10.38;5.78;;;4.30;99.90;;;;;;5096638;28;20221;-78
2021/01/18 08:01:07;;;;;;;9.18;5.15;;;4.40;99.90;;;;;;5096144;28;20615;-78
2021/01/18 08:03:34;;;;;;;12.55;6.15;;;4.40;99.90;;;;;;5099243;28;20224;-78
2021/01/18 08:06:09;;;;;;;10.73;5.30;;;4.50;99.90;;;;;;5100134;28;20197;-78
2021/01/18 08:08:37;;;;;;;11.00;5.00;;;4.60;99.90;;;;;;5095039;28;20212;-78
2021/01/18 08:11:15;;;;;;;6.15;4.32;;;4.60;99.90;;;;;;5094633;28;20208;-78
2021/01/18 08:13:59;;;;;;;6.90;4.30;;;4.40;99.90;;;;;;5094455;28;20233;-78
2021/01/18 08:16:44;;;;;;;10.73;4.68;;;4.50;99.90;;;;;;5075036;28;20210;-77
2021/01/18 08:19:20;;;;;;;6.97;4.30;;;4.70;99.90;;;;;;5085725;28;20699;-78
2021/01/18 08:22:04;;;;;;;9.13;4.30;;;4.60;99.90;;;;;;5095088;28;20304;-79
2021/01/18 08:24:54;;;;;;;9.45;4.25;;;4.70;99.90;;;;;;5096858;28;20197;-78
2021/01/18 08:27:57;;;;;;;8.73;4.30;;;4.50;99.90;;;;;;5095951;28;20197;-77
2021/01/18 08:30:37;;;;;;;7.22;4.13;;;4.60;99.90;;;;;;5087514;28;20224;-78
2021/01/18 08:33:09;;;;;;;9.15;4.50;;;4.60;99.90;;;;;;5095294;28;20232;-78
2021/01/18 08:35:45;;;;;;;9.45;5.55;;;4.80;99.90;;;;;;5097252;28;20220;-78
2021/01/18 08:38:26;;;;;;;6.68;4.10;;;4.80;99.90;;;;;;5094350;28;20205;-79
2021/01/18 08:41:00;;;;;;;12.68;5.03;;;4.90;99.90;;;;;;5094731;28;20203;-78
2021/01/18 08:43:45;;;;;;;11.07;5.63;;;4.80;99.90;;;;;;5096351;28;20236;-78
2021/01/18 08:46:35;;;;;;;9.35;4.72;;;4.80;99.90;;;;;;5094052;28;20224;-79
2021/01/18 08:49:22;;;;;;;10.88;5.00;;;4.70;99.90;;;;;;5095290;28;20207;-78
2021/01/18 08:51:50;;;;;;;6.80;4.13;;;5.00;99.90;;;;;;5095164;28;20305;-78
2021/01/18 08:54:32;;;;;;;10.35;4.55;;;4.90;99.90;;;;;;5095554;28;20223;-78
2021/01/18 08:57:24;;;;;;;9.60;4.78;;;5.00;99.90;;;;;;5098242;28;20204;-78
2021/01/18 09:00:07;;;;;;;8.45;4.53;;;4.90;99.90;;;;;;5081275;28;20610;-78
2021/01/18 09:02:35;;;;;;;9.05;5.38;;;5.00;99.90;;;;;;5091308;28;20373;-78
2021/01/18 09:05:16;;;;;;;9.95;4.40;;;5.00;99.90;;;;;;5096545;28;20208;-79
2021/01/18 09:07:44;;;;;;;9.18;4.38;;;4.90;99.90;;;;;;5093829;28;20290;-78
2021/01/18 09:10:14;;;;;;;7.57;3.92;;;4.90;99.90;;;;;;5092643;28;20688;-77
2021/01/18 09:12:42;;;;;;;8.60;4.28;;;5.00;99.90;;;;;;5095098;28;20243;-78
2021/01/18 09:15:10;;;;;;;8.80;4.43;;;4.90;99.90;;;;;;5096891;28;20322;-78
2021/01/18 09:17:38;;;;;;;12.73;5.22;;;5.00;99.90;;;;;;5096369;28;20235;-78
2021/01/18 09:20:06;;;;;;;9.25;4.97;;;5.00;99.90;;;;;;5086480;28;20218;-78
2021/01/18 09:22:34;;;;;;;12.55;4.68;;;5.10;99.90;;;;;;5075140;28;20236;-79
2021/01/18 09:25:01;;;;;;;8.05;4.47;;;5.40;99.90;;;;;;5080935;28;20209;-78
2021/01/18 09:27:28;;;;;;;6.32;4.05;;;5.30;99.90;;;;;;5096922;28;20197;-78
2021/01/18 09:30:00;;;;;;;8.02;4.78;;;5.40;99.90;;;;;;5095171;28;20658;-78
2021/01/18 09:32:26;;;;;;;10.05;4.55;;;5.50;99.90;;;;;;5087844;28;20221;-78
2021/01/18 09:35:08;;;;;;;7.28;4.45;;;5.60;99.90;;;;;;5091307;28;20643;-78
2021/01/18 09:37:35;;;;;;;6.53;4.30;;;5.80;99.90;;;;;;5091941;28;20687;-77
2021/01/18 09:40:07;;;;;;;6.50;4.28;;;5.70;99.90;;;;;;5089905;28;20220;-77
2021/01/18 09:42:35;;;;;;;8.00;4.65;;;5.80;99.90;;;;;;5090624;28;20233;-78
2021/01/18 09:45:02;;;;;;;9.20;4.43;;;5.60;99.90;;;;;;5089772;28;20203;-78
2021/01/18 09:47:31;;;;;;;11.25;4.10;;;5.70;99.90;;;;;;5074713;28;20585;-78
2021/01/18 09:50:10;;;;;;;9.55;4.97;;;5.60;99.90;;;;;;5090762;28;20235;-79
2021/01/18 09:52:41;;;;;;;8.15;4.38;;;5.70;99.90;;;;;;5099879;28;20706;-79
2021/01/18 09:55:14;;;;;;;10.68;4.22;;;5.60;99.90;;;;;;5095102;28;20649;-78
2021/01/18 09:57:44;;;;;;;11.88;4.60;;;5.50;99.90;;;;;;5095848;28;20201;-79
2021/01/18 10:00:12;;;;;;;8.00;4.03;;;5.70;99.90;;;;;;5098910;28;20225;-79
2021/01/18 10:02:43;;;;;;;7.90;3.80;;;5.60;99.90;;;;;;5089944;28;20220;-79
2021/01/18 10:05:20;;;;;;;6.45;3.60;;;5.60;99.90;;;;;;5079045;28;20204;-78
2021/01/18 10:07:51;;;;;;;5.63;3.83;;;5.40;99.90;;;;;;5096815;28;20211;-78
2021/01/18 10:10:18;;;;;;;6.45;2.97;;;5.50;99.90;;;;;;5096897;28;20201;-78
2021/01/18 10:12:50;;;;;;;6.65;3.25;;;5.50;99.90;;;;;;5098139;28;20217;-78
2021/01/18 10:15:28;;;;;;;7.75;3.90;;;5.60;99.90;;;;;;5096481;28;20632;-78
2021/01/18 10:17:55;;;;;;;6.07;3.20;;;5.70;99.90;;;;;;5096637;28;20205;-78
2021/01/18 10:20:27;;;;;;;10.93;3.70;;;5.60;99.90;;;;;;5085229;28;20226;-78
2021/01/18 10:22:54;;;;;;;9.48;4.30;;;5.50;99.90;;;;;;5079184;28;20217;-79
2021/01/18 10:25:25;;;;;;;7.70;3.65;;;5.70;99.90;;;;;;5092974;28;20261;-78
2021/01/18 10:27:53;;;;;;;8.82;3.47;;;5.80;99.90;;;;;;5092515;28;20201;-78
2021/01/18 10:30:22;;;;;;;9.23;5.00;;;6.00;99.90;;;;;;5093899;28;20244;-78
2021/01/18 10:32:50;;;;;;;11.38;5.85;;;6.00;99.90;;;;;;5093968;28;20221;-79
2021/01/18 10:35:23;;;;;;;6.63;4.05;;;5.90;99.90;;;;;;5093713;28;20201;-78
2021/01/18 10:37:50;;;;;;;6.40;4.00;;;5.80;99.90;;;;;;5090951;28;20201;-79
2021/01/18 10:40:22;;;;;;;9.60;3.60;;;5.80;99.90;;;;;;5076408;28;20237;-78
2021/01/18 10:42:51;;;;;;;8.63;3.95;;;5.90;99.90;;;;;;5081991;28;20225;-78
2021/01/18 10:45:20;;;;;;;11.50;3.88;;;5.80;99.90;;;;;;5097378;28;20205;-78
2021/01/18 10:47:56;;;;;;;6.68;3.60;;;6.10;99.90;;;;;;5077926;28;20210;-78
2021/01/18 10:50:25;;;;;;;7.82;4.55;;;6.00;99.90;;;;;;5082508;28;20667;-79
2021/01/18 10:53:04;;;;;;;7.15;4.00;;;6.20;99.90;;;;;;5096856;28;20221;-79
2021/01/18 10:55:31;;;;;;;4.53;3.03;;;6.10;99.90;;;;;;5100661;28;20201;-79
2021/01/18 10:57:57;;;;;;;7.07;3.90;;;6.20;99.90;;;;;;5096723;28;20221;-79
2021/01/18 11:00:26;;;;;;;7.80;3.30;;;6.20;99.90;;;;;;5095851;28;20237;-79
2021/01/18 11:02:55;;;;;;;7.85;4.03;;;6.20;99.90;;;;;;5096560;28;20299;-79
2021/01/18 11:05:30;;;;;;;10.23;4.78;;;6.10;99.90;;;;;;5104479;28;20193;-77
2021/01/18 11:08:00;;;;;;;9.30;4.45;;;6.20;99.90;;;;;;5100267;28;20204;-78
2021/01/18 11:10:28;;;;;;;7.72;4.43;;;6.10;99.90;;;;;;5099599;28;20201;-78
2021/01/18 11:13:01;;;;;;;9.52;4.30;;;6.10;99.90;;;;;;5096328;28;20252;-80
2021/01/18 11:15:33;;;;;;;8.02;4.20;;;6.20;99.90;;;;;;5095182;28;20209;-77
2021/01/18 11:17:59;;;;;;;7.50;4.38;;;6.10;99.90;;;;;;5092950;28;20206;-77
2021/01/18 11:20:29;;;;;;;7.85;4.78;;;6.10;99.90;;;;;;5094160;28;20217;-78
2021/01/18 11:22:55;;;;;;;5.85;3.67;;;6.10;99.90;;;;;;5096467;28;20249;-82
2021/01/18 11:25:22;;;;;;;8.43;3.78;;;6.10;99.90;;;;;;5096506;28;20284;-79
2021/01/18 11:27:49;;;;;;;7.10;4.15;;;6.10;99.90;;;;;;5101193;28;20221;-80
2021/01/18 11:30:16;;;;;;;7.80;4.45;;;6.20;99.90;;;;;;5109747;22;20237;-86
2021/01/18 11:32:43;;;;;;;8.45;3.90;;;6.20;99.90;;;;;;5091875;28;20194;-89
2021/01/18 11:35:12;;;;;;;6.45;3.72;;;6.10;99.90;;;;;;5082202;28;20212;-89
2021/01/18 11:37:40;;;;;;;7.63;4.07;;;6.10;99.90;;;;;;5081270;28;20232;-88
2021/01/18 11:40:11;;;;;;;11.00;3.58;;;6.40;99.90;;;;;;5084090;28;20225;-88
2021/01/18 11:42:38;;;;;;;12.30;4.00;;;6.60;99.90;;;;;;5082545;28;20194;-87
2021/01/18 11:45:07;;;;;;;6.95;3.90;;;6.80;99.90;;;;;;5082720;28;20198;-88
2021/01/18 11:47:36;;;;;;;7.05;4.00;;;6.60;99.90;;;;;;5087388;28;20210;-88
2021/01/18 11:50:04;;;;;;;6.22;3.90;;;6.60;99.90;;;;;;5087790;28;20218;-89
2021/01/18 11:52:31;;;;;;;5.55;3.20;;;6.80;99.90;;;;;;5084977;28;20205;-88
2021/01/18 11:54:58;;;;;;;9.13;5.43;;;6.90;99.90;;;;;;5065988;28;20229;-87
2021/01/18 11:57:25;;;;;;;8.57;4.20;;;6.70;99.90;;;;;;5081025;28;20202;-87
2021/01/18 11:59:51;;;;;;;10.70;4.28;;;6.70;99.90;;;;;;5067677;28;20226;-85
2021/01/18 12:02:21;;;;;;;5.88;3.55;;;6.90;99.90;;;;;;5074311;28;20213;-87
2021/01/18 12:04:47;;;;;;;6.00;3.80;;;6.70;99.90;;;;;;5083747;28;20228;-85
2021/01/18 12:07:14;;;;;;;7.35;2.92;;;6.80;99.90;;;;;;5084008;28;20213;-86
2021/01/18 12:09:41;;;;;;;8.00;4.63;;;6.90;99.90;;;;;;5079168;28;20195;-89
2021/01/18 12:12:10;;;;;;;7.30;3.20;;;7.10;99.90;;;;;;5067627;28;20665;-89
2021/01/18 12:14:36;;;;;;;6.05;3.75;;;6.90;99.90;;;;;;5080204;28;20279;-88
2021/01/18 12:17:04;;;;;;;9.50;3.50;;;7.10;99.90;;;;;;5063310;28;20248;-88
2021/01/18 12:19:32;;;;;;;5.80;3.15;;;7.20;99.90;;;;;;5065714;28;20230;-89
2021/01/18 12:21:59;;;;;;;9.10;5.47;;;7.10;99.90;;;;;;5062409;28;20222;-90
2021/01/18 12:24:26;;;;;;;10.02;3.90;;;7.10;99.90;;;;;;5081243;28;20664;-90
2021/01/18 12:26:54;;;;;;;6.10;2.80;;;7.10;99.90;;;;;;5082931;28;20202;-90
2021/01/18 12:29:22;;;;;;;8.75;4.90;;;6.90;99.90;;;;;;5072367;28;20203;-91
2021/01/18 12:31:49;;;;;;;7.30;3.33;;;7.20;99.90;;;;;;5079775;28;20241;-88
2021/01/18 12:34:16;;;;;;;6.35;3.60;;;6.70;99.90;;;;;;5083204;28;20210;-90
2021/01/18 12:36:43;;;;;;;6.75;3.10;;;6.80;99.90;;;;;;5096284;28;20261;-90
2021/01/18 12:39:11;;;;;;;8.20;4.20;;;6.80;99.90;;;;;;5096520;28;20230;-89
2021/01/18 12:41:38;;;;;;;7.47;3.33;;;7.10;99.90;;;;;;5084045;28;20222;-89
2021/01/18 12:44:06;;;;;;;6.10;3.45;;;6.90;99.90;;;;;;5064439;28;20206;-89
2021/01/18 12:46:34;;;;;;;10.15;3.55;;;6.80;99.90;;;;;;5081029;28;20194;-91
2021/01/18 12:49:01;;;;;;;5.57;3.40;;;6.90;99.90;;;;;;5087193;28;20270;-90
2021/01/18 12:51:27;;;;;;;6.25;3.80;;;7.20;99.90;;;;;;5071636;28;20577;-89
2021/01/18 12:53:54;;;;;;;5.57;3.17;;;7.10;99.90;;;;;;5093870;28;20225;-90
2021/01/18 12:56:25;;;;;;;4.57;3.10;;;7.40;99.90;;;;;;5095703;28;20229;-90
2021/01/18 12:59:06;;;;;;;7.55;3.53;;;7.30;99.90;;;;;;5102233;28;20209;-90
2021/01/18 13:01:37;;;;;;;8.38;3.00;;;6.90;99.90;;;;;;5117860;28;20224;-90
2021/01/18 13:10:29;;;;;;;9.07;3.20;;;7.10;99.90;;;;;;5102629;28;20224;-90
2021/01/18 13:12:55;;;;;;;8.40;3.60;;;7.10;99.90;;;;;;5087765;28;20666;-87
2021/01/18 13:15:22;;;;;;;8.02;2.95;;;7.10;99.90;;;;;;5081191;28;20206;-83
2021/01/18 13:17:50;;;;;;;14.00;3.55;;;6.90;99.90;;;;;;5077625;28;20214;-84